Terminal Aerodrome Forecast
Issued by NWS

Home | Current Version | Previous Version | Text Only | Print | Product List | Glossary On
Versions: 1 2 3 4 5 6 7 8 9 10 11 12 13 14 15 16 17 18 19 20 21 22
000
FTUS44 KLZK 040500
TAFBPK
TAF
KBPK 040537Z 0406/0506 VRB03KT P6SM SCT035
     FM041000 00000KT 5SM BR BKN015
     FM041400 11007KT P6SM SCT035 BKN100
     FM041800 12005KT P6SM VCSH SCT050 SCT250=

USA.gov is the U.S. government's official web portal to all federal, state and local government web resources and services.